sensor_id;sensor_type;location;lat;lon;timestamp;pressure;altitude;pressure_sealevel;temperature;humidity
13314;BME280;6725;48.112;11.604;2023-07-30T00:01:12;94693.78;;;19.81;100.00
13314;BME280;6725;48.112;11.604;2023-07-30T00:03:37;94652.03;;;19.70;100.00
13314;BME280;6725;48.112;11.604;2023-07-30T00:06:02;94592.47;;;19.60;100.00
13314;BME280;6725;48.112;11.604;2023-07-30T00:08:28;94538.50;;;19.41;100.00
13314;BME280;6725;48.112;11.604;2023-07-30T00:10:56;94466.94;;;19.34;100.00
13314;BME280;6725;48.112;11.604;2023-07-30T00:13:22;94413.72;;;19.30;100.00
13314;BME280;6725;48.112;11.604;2023-07-30T00:15:48;94387.03;;;19.27;100.00
13314;BME280;6725;48.112;11.604;2023-07-30T00:18:14;94349.19;;;19.24;100.00
13314;BME280;6725;48.112;11.604;2023-07-30T00:20:40;94320.19;;;19.19;100.00
13314;BME280;6725;48.112;11.604;2023-07-30T00:23:06;94312.66;;;19.20;100.00
13314;BME280;6725;48.112;11.604;2023-07-30T00:25:31;94298.81;;;19.20;100.00
13314;BME280;6725;48.112;11.604;2023-07-30T00:27:56;94292.78;;;19.21;100.00
13314;BME280;6725;48.112;11.604;2023-07-30T00:30:22;94296.31;;;19.22;100.00
13314;BME280;6725;48.112;11.604;2023-07-30T00:32:47;94284.50;;;19.21;100.00
13314;BME280;6725;48.112;11.604;2023-07-30T00:35:12;94283.72;;;19.21;100.00
13314;BME280;6725;48.112;11.604;2023-07-30T00:37:38;94273.63;;;19.18;100.00
13314;BME280;6725;48.112;11.604;2023-07-30T00:40:03;94274.09;;;19.16;100.00
13314;BME280;6725;48.112;11.604;2023-07-30T00:42:29;94260.47;;;19.13;100.00
13314;BME280;6725;48.112;11.604;2023-07-30T00:44:55;94260.72;;;19.15;100.00
13314;BME280;6725;48.112;11.604;2023-07-30T00:47:21;94257.97;;;19.15;100.00
13314;BME280;6725;48.112;11.604;2023-07-30T00:49:47;94252.44;;;19.15;100.00
13314;BME280;6725;48.112;11.604;2023-07-30T00:52:15;94246.91;;;19.15;100.00
13314;BME280;6725;48.112;11.604;2023-07-30T00:54:41;94261.78;;;19.17;100.00
13314;BME280;6725;48.112;11.604;2023-07-30T00:57:06;94262.53;;;19.18;100.00
13314;BME280;6725;48.112;11.604;2023-07-30T00:59:33;94265.31;;;19.18;100.00
13314;BME280;6725;48.112;11.604;2023-07-30T01:01:58;94270.06;;;19.17;100.00
13314;BME280;6725;48.112;11.604;2023-07-30T01:04:24;94274.31;;;19.13;100.00
13314;BME280;6725;48.112;11.604;2023-07-30T01:06:49;94260.72;;;19.15;100.00
13314;BME280;6725;48.112;11.604;2023-07-30T01:09:15;94249.41;;;19.13;100.00
13314;BME280;6725;48.112;11.604;2023-07-30T01:11:41;94255.44;;;19.11;100.00
13314;BME280;6725;48.112;11.604;2023-07-30T01:14:09;94254.41;;;19.09;100.00
13314;BME280;6725;48.112;11.604;2023-07-30T01:16:35;94247.06;;;19.06;100.00
13314;BME280;6725;48.112;11.604;2023-07-30T01:19:00;94254.81;;;19.02;100.00
13314;BME280;6725;48.112;11.604;2023-07-30T01:21:34;94253.28;;;19.01;100.00
13314;BME280;6725;48.112;11.604;2023-07-30T01:23:59;94248.72;;;18.98;100.00
13314;BME280;6725;48.112;11.604;2023-07-30T01:26:27;94255.47;;;18.97;100.00
13314;BME280;6725;48.112;11.604;2023-07-30T01:28:58;94255.72;;;18.93;100.00
13314;BME280;6725;48.112;11.604;2023-07-30T01:31:26;94262.97;;;18.91;100.00
13314;BME280;6725;48.112;11.604;2023-07-30T01:33:54;94259.66;;;18.87;100.00
13314;BME280;6725;48.112;11.604;2023-07-30T01:36:20;94245.81;;;18.87;100.00
13314;BME280;6725;48.112;11.604;2023-07-30T01:38:47;94241.50;;;18.86;100.00
13314;BME280;6725;48.112;11.604;2023-07-30T01:41:14;94232.94;;;18.84;100.00
13314;BME280;6725;48.112;11.604;2023-07-30T01:43:39;94229.91;;;18.82;100.00
13314;BME280;6725;48.112;11.604;2023-07-30T01:46:05;94225.63;;;18.81;100.00
13314;BME280;6725;48.112;11.604;2023-07-30T01:48:30;94227.41;;;18.84;100.00
13314;BME280;6725;48.112;11.604;2023-07-30T01:50:55;94239.22;;;18.84;100.00
13314;BME280;6725;48.112;11.604;2023-07-30T01:53:21;94251.63;;;18.89;100.00
13314;BME280;6725;48.112;11.604;2023-07-30T01:55:46;94268.28;;;18.94;100.00
13314;BME280;6725;48.112;11.604;2023-07-30T01:58:12;94290.72;;;18.96;100.00
13314;BME280;6725;48.112;11.604;2023-07-30T02:00:38;94314.59;;;18.94;100.00
13314;BME280;6725;48.112;11.604;2023-07-30T02:03:04;94331.94;;;18.94;100.00
13314;BME280;6725;48.112;11.604;2023-07-30T02:05:30;94343.78;;;18.95;100.00
13314;BME280;6725;48.112;11.604;2023-07-30T02:07:55;94353.34;;;18.94;100.00
13314;BME280;6725;48.112;11.604;2023-07-30T02:10:20;94354.28;;;18.91;100.00
13314;BME280;6725;48.112;11.604;2023-07-30T02:12:46;94374.22;;;18.95;100.00
13314;BME280;6725;48.112;11.604;2023-07-30T02:15:11;94365.91;;;18.95;100.00
13314;BME280;6725;48.112;11.604;2023-07-30T02:17:36;94358.03;;;18.88;100.00
13314;BME280;6725;48.112;11.604;2023-07-30T02:20:02;94351.53;;;18.91;100.00
13314;BME280;6725;48.112;11.604;2023-07-30T02:22:28;94345.69;;;18.89;100.00
13314;BME280;6725;48.112;11.604;2023-07-30T02:24:53;94342.75;;;18.92;100.00
13314;BME280;6725;48.112;11.604;2023-07-30T02:27:18;94342.25;;;18.94;100.00
13314;BME280;6725;48.112;11.604;2023-07-30T02:29:44;94331.75;;;18.98;100.00
13314;BME280;6725;48.112;11.604;2023-07-30T02:32:09;94334.78;;;19.00;100.00
13314;BME280;6725;48.112;11.604;2023-07-30T02:34:34;94329.25;;;19.00;100.00
13314;BME280;6725;48.112;11.604;2023-07-30T02:37:00;94332.31;;;19.02;100.00
13314;BME280;6725;48.112;11.604;2023-07-30T02:39:25;94334.13;;;19.05;100.00
13314;BME280;6725;48.112;11.604;2023-07-30T02:41:50;94343.94;;;19.06;100.00
13314;BME280;6725;48.112;11.604;2023-07-30T02:44:16;94345.44;;;19.07;100.00
13314;BME280;6725;48.112;11.604;2023-07-30T02:46:41;94341.41;;;19.08;100.00
13314;BME280;6725;48.112;11.604;2023-07-30T02:49:07;94354.03;;;19.09;100.00
13314;BME280;6725;48.112;11.604;2023-07-30T02:51:33;94373.69;;;19.11;100.00
13314;BME280;6725;48.112;11.604;2023-07-30T02:53:58;94351.59;;;19.16;100.00
13314;BME280;6725;48.112;11.604;2023-07-30T02:56:28;94312.22;;;19.07;100.00
13314;BME280;6725;48.112;11.604;2023-07-30T02:58:53;94265.41;;;19.03;100.00
13314;BME280;6725;48.112;11.604;2023-07-30T03:01:19;94233.63;;;18.99;100.00
13314;BME280;6725;48.112;11.604;2023-07-30T03:03:44;94202.66;;;18.95;100.00
13314;BME280;6725;48.112;11.604;2023-07-30T03:06:10;94202.34;;;18.93;100.00
13314;BME280;6725;48.112;11.604;2023-07-30T03:08:35;94186.25;;;18.91;100.00
13314;BME280;6725;48.112;11.604;2023-07-30T03:11:01;94164.59;;;18.90;100.00
13314;BME280;6725;48.112;11.604;2023-07-30T03:13:26;94144.97;;;18.88;100.00
13314;BME280;6725;48.112;11.604;2023-07-30T03:15:52;94119.03;;;18.85;100.00
13314;BME280;6725;48.112;11.604;2023-07-30T03:18:17;94094.63;;;18.84;100.00
13314;BME280;6725;48.112;11.604;2023-07-30T03:20:42;94085.06;;;18.85;100.00
13314;BME280;6725;48.112;11.604;2023-07-30T03:23:08;94065.50;;;18.88;100.00
13314;BME280;6725;48.112;11.604;2023-07-30T03:25:33;94052.16;;;18.87;100.00
13314;BME280;6725;48.112;11.604;2023-07-30T03:27:58;94033.50;;;18.87;100.00
13314;BME280;6725;48.112;11.604;2023-07-30T03:30:24;94014.63;;;18.86;100.00
13314;BME280;6725;48.112;11.604;2023-07-30T03:32:49;93987.97;;;18.83;100.00
13314;BME280;6725;48.112;11.604;2023-07-30T03:35:15;93956.72;;;18.77;100.00
13314;BME280;6725;48.112;11.604;2023-07-30T03:37:40;93925.50;;;18.71;100.00
13314;BME280;6725;48.112;11.604;2023-07-30T03:40:06;93904.34;;;18.68;100.00
13314;BME280;6725;48.112;11.604;2023-07-30T03:42:31;93889.72;;;18.62;100.00
13314;BME280;6725;48.112;11.604;2023-07-30T03:44:57;93861.25;;;18.56;100.00
13314;BME280;6725;48.112;11.604;2023-07-30T03:47:22;93846.66;;;18.50;100.00
13314;BME280;6725;48.112;11.604;2023-07-30T03:49:47;93831.28;;;18.49;100.00
13314;BME280;6725;48.112;11.604;2023-07-30T03:52:13;93811.41;;;18.45;100.00
13314;BME280;6725;48.112;11.604;2023-07-30T03:54:38;93790.56;;;18.44;100.00
13314;BME280;6725;48.112;11.604;2023-07-30T03:57:04;93778.97;;;18.40;100.00
13314;BME280;6725;48.112;11.604;2023-07-30T03:59:29;93765.16;;;18.40;100.00
13314;BME280;6725;48.112;11.604;2023-07-30T04:01:54;93754.09;;;18.40;100.00
13314;BME280;6725;48.112;11.604;2023-07-30T04:04:20;93747.53;;;18.37;100.00
13314;BME280;6725;48.112;11.604;2023-07-30T04:06:45;93734.94;;;18.36;100.00
13314;BME280;6725;48.112;11.604;2023-07-30T04:09:11;93720.09;;;18.34;100.00
13314;BME280;6725;48.112;11.604;2023-07-30T04:11:36;93713.81;;;18.33;100.00
13314;BME280;6725;48.112;11.604;2023-07-30T04:14:01;93708.50;;;18.30;100.00
13314;BME280;6725;48.112;11.604;2023-07-30T04:16:27;93717.28;;;18.28;100.00
13314;BME280;6725;48.112;11.604;2023-07-30T04:18:52;93701.47;;;18.29;100.00
13314;BME280;6725;48.112;11.604;2023-07-30T04:21:18;93703.06;;;18.41;100.00
13314;BME280;6725;48.112;11.604;2023-07-30T04:23:43;93708.66;;;18.52;100.00
13314;BME280;6725;48.112;11.604;2023-07-30T04:26:08;93710.69;;;18.57;100.00
13314;BME280;6725;48.112;11.604;2023-07-30T04:28:33;93726.59;;;18.67;100.00
13314;BME280;6725;48.112;11.604;2023-07-30T04:30:59;93748.97;;;18.75;100.00
13314;BME280;6725;48.112;11.604;2023-07-30T04:33:24;93760.16;;;18.97;100.00
13314;BME280;6725;48.112;11.604;2023-07-30T04:35:51;93788.19;;;19.21;100.00
13314;BME280;6725;48.112;11.604;2023-07-30T04:38:16;93846.19;;;19.46;100.00
13314;BME280;6725;48.112;11.604;2023-07-30T04:40:42;93949.78;;;19.66;100.00
13314;BME280;6725;48.112;11.604;2023-07-30T04:43:07;94096.72;;;19.82;100.00
13314;BME280;6725;48.112;11.604;2023-07-30T04:45:33;94235.19;;;20.02;100.00
13314;BME280;6725;48.112;11.604;2023-07-30T04:47:58;94381.63;;;20.04;100.00
13314;BME280;6725;48.112;11.604;2023-07-30T04:50:24;94453.47;;;20.07;100.00
13314;BME280;6725;48.112;11.604;2023-07-30T04:52:49;94540.13;;;20.02;100.00
13314;BME280;6725;48.112;11.604;2023-07-30T04:55:15;94573.97;;;20.46;100.00
13314;BME280;6725;48.112;11.604;2023-07-30T04:57:40;94658.59;;;20.76;100.00
13314;BME280;6725;48.112;11.604;2023-07-30T05:00:06;94728.06;;;20.82;100.00
13314;BME280;6725;48.112;11.604;2023-07-30T05:02:32;94768.53;;;20.88;100.00
13314;BME280;6725;48.112;11.604;2023-07-30T05:04:57;94817.50;;;21.26;100.00
13314;BME280;6725;48.112;11.604;2023-07-30T05:07:23;94853.56;;;21.40;100.00
13314;BME280;6725;48.112;11.604;2023-07-30T05:09:48;94871.53;;;21.25;100.00
13314;BME280;6725;48.112;11.604;2023-07-30T05:12:14;94874.72;;;20.98;100.00
13314;BME280;6725;48.112;11.604;2023-07-30T05:14:39;94872.41;;;20.96;100.00
13314;BME280;6725;48.112;11.604;2023-07-30T05:17:04;94861.19;;;20.91;100.00
13314;BME280;6725;48.112;11.604;2023-07-30T05:19:30;94855.22;;;21.12;100.00
13314;BME280;6725;48.112;11.604;2023-07-30T05:21:55;94887.63;;;21.55;100.00
13314;BME280;6725;48.112;11.604;2023-07-30T05:24:21;94917.28;;;22.50;100.00
13314;BME280;6725;48.112;11.604;2023-07-30T05:26:46;94976.53;;;23.38;100.00
13314;BME280;6725;48.112;11.604;2023-07-30T05:29:11;95011.59;;;23.92;100.00
13314;BME280;6725;48.112;11.604;2023-07-30T05:31:37;95037.31;;;24.60;100.00
13314;BME280;6725;48.112;11.604;2023-07-30T05:34:02;95066.91;;;25.05;100.00
13314;BME280;6725;48.112;11.604;2023-07-30T05:36:27;95075.63;;;25.40;100.00
13314;BME280;6725;48.112;11.604;2023-07-30T05:38:53;95095.22;;;26.12;100.00
13314;BME280;6725;48.112;11.604;2023-07-30T05:41:18;95101.59;;;26.91;100.00
13314;BME280;6725;48.112;11.604;2023-07-30T05:43:43;95115.50;;;27.13;100.00
13314;BME280;6725;48.112;11.604;2023-07-30T05:46:08;95112.41;;;27.28;100.00
13314;BME280;6725;48.112;11.604;2023-07-30T05:48:34;95129.31;;;27.11;100.00
13314;BME280;6725;48.112;11.604;2023-07-30T05:50:59;95121.56;;;27.28;100.00
13314;BME280;6725;48.112;11.604;2023-07-30T05:53:25;95118.97;;;27.71;100.00
13314;BME280;6725;48.112;11.604;2023-07-30T05:55:50;95118.81;;;28.22;100.00
13314;BME280;6725;48.112;11.604;2023-07-30T05:58:15;95122.81;;;28.33;100.00
13314;BME280;6725;48.112;11.604;2023-07-30T06:00:41;95120.22;;;28.34;100.00
13314;BME280;6725;48.112;11.604;2023-07-30T06:03:06;95116.75;;;28.77;100.00
13314;BME280;6725;48.112;11.604;2023-07-30T06:05:39;95122.25;;;28.40;100.00
13314;BME280;6725;48.112;11.604;2023-07-30T06:08:04;95117.53;;;28.96;100.00
13314;BME280;6725;48.112;11.604;2023-07-30T06:10:29;95123.94;;;29.52;100.00
13314;BME280;6725;48.112;11.604;2023-07-30T06:12:55;95127.84;;;29.99;100.00
13314;BME280;6725;48.112;11.604;2023-07-30T06:15:20;95129.19;;;29.79;100.00
13314;BME280;6725;48.112;11.604;2023-07-30T06:17:45;95130.50;;;29.41;100.00
13314;BME280;6725;48.112;11.604;2023-07-30T06:20:11;95122.41;;;29.88;100.00
13314;BME280;6725;48.112;11.604;2023-07-30T06:22:36;95122.00;;;30.28;100.00
13314;BME280;6725;48.112;11.604;2023-07-30T06:25:02;95119.97;;;30.55;100.00
13314;BME280;6725;48.112;11.604;2023-07-30T06:27:27;95127.56;;;30.34;100.00
13314;BME280;6725;48.112;11.604;2023-07-30T06:29:53;95125.84;;;30.57;100.00
13314;BME280;6725;48.112;11.604;2023-07-30T06:32:18;95127.47;;;30.65;100.00
13314;BME280;6725;48.112;11.604;2023-07-30T06:34:43;95121.84;;;31.64;100.00
13314;BME280;6725;48.112;11.604;2023-07-30T06:37:09;95133.69;;;31.03;100.00
13314;BME280;6725;48.112;11.604;2023-07-30T06:39:34;95131.84;;;31.65;100.00
13314;BME280;6725;48.112;11.604;2023-07-30T06:42:00;95131.56;;;30.07;100.00
13314;BME280;6725;48.112;11.604;2023-07-30T06:44:25;95134.75;;;31.13;100.00
13314;BME280;6725;48.112;11.604;2023-07-30T06:46:51;95132.75;;;31.94;100.00
13314;BME280;6725;48.112;11.604;2023-07-30T06:49:16;95137.50;;;31.65;100.00
13314;BME280;6725;48.112;11.604;2023-07-30T06:51:41;95134.19;;;31.87;100.00
13314;BME280;6725;48.112;11.604;2023-07-30T06:54:07;95135.72;;;31.75;100.00
13314;BME280;6725;48.112;11.604;2023-07-30T06:56:32;95136.88;;;32.54;100.00
13314;BME280;6725;48.112;11.604;2023-07-30T06:58:57;95128.03;;;31.96;100.00
13314;BME280;6725;48.112;11.604;2023-07-30T07:01:23;95129.53;;;32.31;100.00
13314;BME280;6725;48.112;11.604;2023-07-30T07:03:48;95126.69;;;33.07;100.00
13314;BME280;6725;48.112;11.604;2023-07-30T07:06:14;95127.78;;;32.48;100.00
13314;BME280;6725;48.112;11.604;2023-07-30T07:08:39;95125.78;;;32.84;100.00
13314;BME280;6725;48.112;11.604;2023-07-30T07:11:04;95136.09;;;33.81;91.03
13314;BME280;6725;48.112;11.604;2023-07-30T07:13:30;95130.94;;;34.53;86.16
13314;BME280;6725;48.112;11.604;2023-07-30T07:15:55;95136.31;;;33.91;87.89
13314;BME280;6725;48.112;11.604;2023-07-30T07:18:20;95139.22;;;33.19;92.39
13314;BME280;6725;48.112;11.604;2023-07-30T07:20:46;95132.66;;;32.96;97.50
13314;BME280;6725;48.112;11.604;2023-07-30T07:23:11;95134.63;;;33.88;95.83
13314;BME280;6725;48.112;11.604;2023-07-30T07:25:36;95141.88;;;34.19;90.82
13314;BME280;6725;48.112;11.604;2023-07-30T07:28:03;95137.31;;;34.01;90.52
13314;BME280;6725;48.112;11.604;2023-07-30T07:30:28;95134.66;;;34.18;84.28
13314;BME280;6725;48.112;11.604;2023-07-30T07:32:53;95146.22;;;35.10;82.19
13314;BME280;6725;48.112;11.604;2023-07-30T07:35:20;95147.56;;;34.79;81.56
13314;BME280;6725;48.112;11.604;2023-07-30T07:37:45;95139.94;;;33.12;92.01
13314;BME280;6725;48.112;11.604;2023-07-30T07:40:11;95142.19;;;32.58;100.00
13314;BME280;6725;48.112;11.604;2023-07-30T07:42:38;95138.91;;;30.99;100.00
13314;BME280;6725;48.112;11.604;2023-07-30T07:45:05;95148.25;;;30.36;100.00
13314;BME280;6725;48.112;11.604;2023-07-30T07:47:30;95138.97;;;29.41;100.00
13314;BME280;6725;48.112;11.604;2023-07-30T07:49:55;95136.75;;;29.34;100.00
13314;BME280;6725;48.112;11.604;2023-07-30T07:52:21;95137.97;;;30.39;100.00
13314;BME280;6725;48.112;11.604;2023-07-30T07:54:46;95139.31;;;32.09;100.00
13314;BME280;6725;48.112;11.604;2023-07-30T07:57:11;95149.31;;;30.91;100.00
13314;BME280;6725;48.112;11.604;2023-07-30T07:59:37;95141.94;;;29.30;100.00
13314;BME280;6725;48.112;11.604;2023-07-30T08:02:02;95144.47;;;28.38;100.00
13314;BME280;6725;48.112;11.604;2023-07-30T08:04:27;95142.31;;;28.25;100.00
13314;BME280;6725;48.112;11.604;2023-07-30T08:06:53;95141.91;;;29.86;100.00
13314;BME280;6725;48.112;11.604;2023-07-30T08:09:18;95152.91;;;31.64;100.00
13314;BME280;6725;48.112;11.604;2023-07-30T08:11:44;95146.47;;;31.17;100.00
13314;BME280;6725;48.112;11.604;2023-07-30T08:14:09;95152.09;;;30.52;100.00
13314;BME280;6725;48.112;11.604;2023-07-30T08:16:34;95146.72;;;31.32;100.00
13314;BME280;6725;48.112;11.604;2023-07-30T08:19:00;95150.41;;;31.14;100.00
13314;BME280;6725;48.112;11.604;2023-07-30T08:21:25;95146.63;;;29.41;100.00
13314;BME280;6725;48.112;11.604;2023-07-30T08:23:50;95150.91;;;29.29;100.00
13314;BME280;6725;48.112;11.604;2023-07-30T08:26:16;95146.41;;;29.02;100.00
13314;BME280;6725;48.112;11.604;2023-07-30T08:28:41;95151.78;;;31.07;100.00
13314;BME280;6725;48.112;11.604;2023-07-30T08:31:06;95145.00;;;31.96;100.00
13314;BME280;6725;48.112;11.604;2023-07-30T08:33:32;95145.91;;;31.18;99.80
13314;BME280;6725;48.112;11.604;2023-07-30T08:35:58;95133.94;;;32.67;92.86
13314;BME280;6725;48.112;11.604;2023-07-30T08:38:24;95138.09;;;31.84;95.18
13314;BME280;6725;48.112;11.604;2023-07-30T08:40:50;95134.97;;;31.02;100.00
13314;BME280;6725;48.112;11.604;2023-07-30T08:43:15;95135.34;;;29.78;100.00
13314;BME280;6725;48.112;11.604;2023-07-30T08:45:41;95131.44;;;29.99;100.00
13314;BME280;6725;48.112;11.604;2023-07-30T08:48:07;95134.00;;;30.73;100.00
13314;BME280;6725;48.112;11.604;2023-07-30T08:50:32;95131.22;;;31.59;100.00
13314;BME280;6725;48.112;11.604;2023-07-30T08:52:59;95143.41;;;32.29;94.93
13314;BME280;6725;48.112;11.604;2023-07-30T08:55:26;95133.47;;;33.04;88.27
13314;BME280;6725;48.112;11.604;2023-07-30T08:57:54;95129.56;;;33.50;85.99
13314;BME280;6725;48.112;11.604;2023-07-30T09:00:22;95131.03;;;32.80;85.30
13314;BME280;6725;48.112;11.604;2023-07-30T09:02:55;95120.94;;;33.63;82.33
13314;BME280;6725;48.112;11.604;2023-07-30T09:05:23;95123.72;;;34.22;74.95
13314;BME280;6725;48.112;11.604;2023-07-30T09:07:49;95121.44;;;35.03;74.42
13314;BME280;6725;48.112;11.604;2023-07-30T09:10:15;95108.25;;;35.45;68.02
13314;BME280;6725;48.112;11.604;2023-07-30T09:12:40;95113.69;;;34.13;73.18
13314;BME280;6725;48.112;11.604;2023-07-30T09:15:07;95108.63;;;32.13;85.28
13314;BME280;6725;48.112;11.604;2023-07-30T09:17:33;95103.63;;;32.47;85.25
13314;BME280;6725;48.112;11.604;2023-07-30T09:20:00;95101.69;;;33.26;80.50
13314;BME280;6725;48.112;11.604;2023-07-30T09:22:30;95102.16;;;34.04;76.21
13314;BME280;6725;48.112;11.604;2023-07-30T09:25:00;95099.53;;;34.58;67.50
13314;BME280;6725;48.112;11.604;2023-07-30T09:27:26;95098.72;;;34.80;64.82
13314;BME280;6725;48.112;11.604;2023-07-30T09:29:56;95101.75;;;33.92;68.18
13314;BME280;6725;48.112;11.604;2023-07-30T09:32:29;95096.34;;;33.15;74.06
13314;BME280;6725;48.112;11.604;2023-07-30T09:34:54;95089.09;;;32.71;79.97
13314;BME280;6725;48.112;11.604;2023-07-30T09:37:20;95092.22;;;33.24;76.58
13314;BME280;6725;48.112;11.604;2023-07-30T09:39:47;95098.16;;;33.33;75.11
13314;BME280;6725;48.112;11.604;2023-07-30T09:42:13;95097.66;;;33.57;74.63
13314;BME280;6725;48.112;11.604;2023-07-30T09:44:38;95086.41;;;33.88;74.38
13314;BME280;6725;48.112;11.604;2023-07-30T09:47:09;95086.56;;;33.82;70.11
13314;BME280;6725;48.112;11.604;2023-07-30T09:49:36;95089.28;;;34.18;66.46
13314;BME280;6725;48.112;11.604;2023-07-30T09:52:03;95088.50;;;34.10;68.16
13314;BME280;6725;48.112;11.604;2023-07-30T09:54:29;95087.78;;;34.24;64.48
13314;BME280;6725;48.112;11.604;2023-07-30T09:56:54;95092.13;;;33.01;74.17
13314;BME280;6725;48.112;11.604;2023-07-30T09:59:20;95083.69;;;33.59;70.20
13314;BME280;6725;48.112;11.604;2023-07-30T10:01:49;95093.09;;;34.50;66.27
13314;BME280;6725;48.112;11.604;2023-07-30T10:04:15;95092.34;;;34.42;64.97
13314;BME280;6725;48.112;11.604;2023-07-30T10:09:17;95091.59;;;34.42;69.27
13314;BME280;6725;48.112;11.604;2023-07-30T10:11:45;95101.59;;;33.11;77.08
13314;BME280;6725;48.112;11.604;2023-07-30T10:14:12;95100.47;;;31.89;82.40
13314;BME280;6725;48.112;11.604;2023-07-30T10:16:38;95097.44;;;31.07;89.66
13314;BME280;6725;48.112;11.604;2023-07-30T10:19:03;95101.84;;;29.93;98.45
13314;BME280;6725;48.112;11.604;2023-07-30T10:21:32;95120.94;;;29.13;100.00
13314;BME280;6725;48.112;11.604;2023-07-30T10:24:04;95116.13;;;27.76;100.00
13314;BME280;6725;48.112;11.604;2023-07-30T10:26:34;95112.19;;;26.63;100.00
13314;BME280;6725;48.112;11.604;2023-07-30T10:31:53;95122.47;;;26.00;100.00
13314;BME280;6725;48.112;11.604;2023-07-30T10:34:20;95127.97;;;26.44;100.00
13314;BME280;6725;48.112;11.604;2023-07-30T10:36:47;95114.59;;;27.46;100.00
13314;BME280;6725;48.112;11.604;2023-07-30T10:39:18;95117.91;;;28.87;100.00
13314;BME280;6725;48.112;11.604;2023-07-30T10:41:51;95115.88;;;29.80;100.00
13314;BME280;6725;48.112;11.604;2023-07-30T10:44:30;95110.56;;;30.08;100.00
13314;BME280;6725;48.112;11.604;2023-07-30T10:46:57;95105.84;;;29.66;100.00
13314;BME280;6725;48.112;11.604;2023-07-30T10:49:23;95104.88;;;29.95;100.00
13314;BME280;6725;48.112;11.604;2023-07-30T10:51:59;95106.34;;;30.72;100.00
13314;BME280;6725;48.112;11.604;2023-07-30T10:54:25;95101.31;;;30.65;100.00
13314;BME280;6725;48.112;11.604;2023-07-30T10:56:51;95092.25;;;30.72;100.00
13314;BME280;6725;48.112;11.604;2023-07-30T10:59:17;95093.59;;;31.17;100.00
13314;BME280;6725;48.112;11.604;2023-07-30T11:01:44;95086.91;;;31.54;98.63
13314;BME280;6725;48.112;11.604;2023-07-30T11:04:13;95092.13;;;31.50;100.00
13314;BME280;6725;48.112;11.604;2023-07-30T11:06:38;95087.66;;;31.88;94.05
13314;BME280;6725;48.112;11.604;2023-07-30T11:09:05;95082.16;;;31.70;94.80
13314;BME280;6725;48.112;11.604;2023-07-30T11:11:31;95084.19;;;31.82;93.24
13314;BME280;6725;48.112;11.604;2023-07-30T11:13:57;95078.41;;;32.08;91.42
13314;BME280;6725;48.112;11.604;2023-07-30T11:16:24;95095.91;;;32.76;88.38
13314;BME280;6725;48.112;11.604;2023-07-30T11:18:49;95085.34;;;32.76;85.04
13314;BME280;6725;48.112;11.604;2023-07-30T11:21:17;95080.97;;;32.96;79.98
13314;BME280;6725;48.112;11.604;2023-07-30T11:23:43;95084.47;;;32.12;86.05
13314;BME280;6725;48.112;11.604;2023-07-30T11:26:13;95085.25;;;31.59;89.47
13314;BME280;6725;48.112;11.604;2023-07-30T11:28:39;95093.75;;;31.79;89.26
13314;BME280;6725;48.112;11.604;2023-07-30T11:33:31;95089.13;;;32.30;81.52
13314;BME280;6725;48.112;11.604;2023-07-30T11:35:56;95098.16;;;32.70;77.26
13314;BME280;6725;48.112;11.604;2023-07-30T11:38:24;95086.97;;;31.95;78.78
13314;BME280;6725;48.112;11.604;2023-07-30T11:40:50;95083.31;;;31.07;84.77
13314;BME280;6725;48.112;11.604;2023-07-30T11:43:16;95094.13;;;30.25;89.27
13314;BME280;6725;48.112;11.604;2023-07-30T11:45:42;95090.69;;;30.45;88.74
13314;BME280;6725;48.112;11.604;2023-07-30T11:48:08;95090.25;;;30.41;86.81
13314;BME280;6725;48.112;11.604;2023-07-30T11:50:49;95085.06;;;30.45;87.59
13314;BME280;6725;48.112;11.604;2023-07-30T11:53:15;95095.13;;;29.96;90.47
13314;BME280;6725;48.112;11.604;2023-07-30T11:55:41;95123.28;;;28.85;100.00
13314;BME280;6725;48.112;11.604;2023-07-30T11:58:09;95115.88;;;28.09;100.00
13314;BME280;6725;48.112;11.604;2023-07-30T12:00:36;95125.56;;;27.84;100.00
13314;BME280;6725;48.112;11.604;2023-07-30T12:03:06;95123.34;;;27.72;100.00
13314;BME280;6725;48.112;11.604;2023-07-30T12:05:37;95115.94;;;27.69;100.00
13314;BME280;6725;48.112;11.604;2023-07-30T12:08:03;95114.06;;;27.47;100.00
13314;BME280;6725;48.112;11.604;2023-07-30T12:10:47;95108.94;;;28.16;100.00
13314;BME280;6725;48.112;11.604;2023-07-30T12:13:20;95114.63;;;28.34;100.00
13314;BME280;6725;48.112;11.604;2023-07-30T12:15:55;95114.72;;;28.23;100.00
13314;BME280;6725;48.112;11.604;2023-07-30T12:18:23;95118.56;;;28.50;100.00
13314;BME280;6725;48.112;11.604;2023-07-30T12:20:53;95115.41;;;28.05;100.00
13314;BME280;6725;48.112;11.604;2023-07-30T12:23:19;95115.59;;;27.83;100.00
13314;BME280;6725;48.112;11.604;2023-07-30T12:25:46;95122.78;;;28.08;100.00
13314;BME280;6725;48.112;11.604;2023-07-30T12:28:12;95114.16;;;28.30;100.00
13314;BME280;6725;48.112;11.604;2023-07-30T12:30:37;95120.78;;;27.68;100.00
13314;BME280;6725;48.112;11.604;2023-07-30T12:33:03;95120.06;;;27.68;100.00
13314;BME280;6725;48.112;11.604;2023-07-30T12:35:30;95131.03;;;27.66;100.00
13314;BME280;6725;48.112;11.604;2023-07-30T12:37:56;95124.03;;;27.43;100.00
13314;BME280;6725;48.112;11.604;2023-07-30T12:40:21;95138.81;;;27.43;100.00
13314;BME280;6725;48.112;11.604;2023-07-30T12:42:47;95142.03;;;27.64;100.00
13314;BME280;6725;48.112;11.604;2023-07-30T12:45:12;95131.31;;;27.62;100.00
13314;BME280;6725;48.112;11.604;2023-07-30T12:47:37;95136.34;;;28.04;100.00
13314;BME280;6725;48.112;11.604;2023-07-30T12:50:03;95140.06;;;27.88;100.00
13314;BME280;6725;48.112;11.604;2023-07-30T12:52:30;95132.91;;;27.87;100.00
13314;BME280;6725;48.112;11.604;2023-07-30T12:54:56;95128.59;;;27.81;100.00